Time;durP1;ratioP1;P1;durP2;ratioP2;P2;SDS_P1;SDS_P2;PMS_P1;PMS_P2;Temp;Humidity;BMP_temperature;BMP_pressure;BME280_temperature;BME280_humidity;BME280_pressure;Samples;Min_cycle;Max_cycle;Signal;HPM_P1;HPM_P2
2023/10/19 00:01:08;;;;;;;;;;;;;;;17.64;52.06;101055.50;4931574;29;1157;-55
2023/10/19 00:03:34;;;;;;;;;;;;;;;17.10;53.03;101054.03;4928101;29;2483;-56
2023/10/19 00:05:59;;;;;;;;;;;;;;;16.68;53.53;101047.53;4938201;29;1455;-56
2023/10/19 00:08:25;;;;;;;;;;;;;;;16.48;54.03;101041.94;4933940;29;1114;-57
2023/10/19 00:13:54;;;;;;;;;;;;;;;16.96;53.37;101042.72;4897138;29;1247;-56
2023/10/19 00:16:28;;;;;;;;;;;;;;;16.58;53.82;101050.22;4934599;29;1895;-57
2023/10/19 00:18:54;;;;;;;;;;;;;;;16.46;53.73;101049.63;4937737;29;1026;-57
2023/10/19 00:23:47;;;;;;;;;;;;;;;17.55;52.04;101048.91;4936675;29;1045;-54
2023/10/19 00:26:19;;;;;;;;;;;;;;;16.83;53.35;101049.53;4939877;29;1088;-54
2023/10/19 00:29:18;;;;;;;;;;;;;;;16.57;53.83;101046.66;4928721;29;1085;-54
2023/10/19 00:31:40;;;;;;;;;;;;;;;17.74;51.75;101039.00;4931263;29;1536;-55
2023/10/19 00:34:06;;;;;;;;;;;;;;;17.01;53.06;101037.25;4934764;29;2224;-54
2023/10/19 00:36:33;;;;;;;;;;;;;;;16.68;53.69;101036.53;4931967;29;1895;-52
2023/10/19 00:39:05;;;;;;;;;;;;;;;16.69;54.19;101038.19;4940171;29;1109;-55
2023/10/19 00:41:31;;;;;;;;;;;;;;;17.35;52.50;101045.03;4955987;29;1022;-54
2023/10/19 00:46:32;;;;;;;;;;;;;;;16.56;53.89;101033.19;4941159;29;1041;-56
2023/10/19 00:48:59;;;;;;;;;;;;;;;17.55;52.16;101026.91;4934950;29;1124;-54
2023/10/19 00:54:05;;;;;;;;;;;;;;;16.65;53.87;101030.75;4923802;29;932;-57
2023/10/19 00:56:32;;;;;;;;;;;;;;;16.50;53.60;101034.25;4933473;29;1972;-55
2023/10/19 00:59:14;;;;;;;;;;;;;;;16.36;53.91;101037.47;4933714;29;1617;-58
2023/10/19 01:01:43;;;;;;;;;;;;;;;17.69;51.87;101038.19;4952590;29;1326;-58
2023/10/19 01:04:13;;;;;;;;;;;;;;;16.97;53.13;101038.03;4937987;29;2658;-57
2023/10/19 01:06:43;;;;;;;;;;;;;;;16.62;53.53;101031.28;4939577;29;2232;-58
2023/10/19 01:09:15;;;;;;;;;;;;;;;16.71;53.83;101029.69;4940450;29;1726;-53
2023/10/19 01:11:49;;;;;;;;;;;;;;;17.65;51.69;101029.66;4926824;29;1034;-50
2023/10/19 01:14:20;;;;;;;;;;;;;;;16.86;53.11;101039.91;4934580;29;1050;-52
2023/10/19 01:16:46;;;;;;;;;;;;;;;16.58;53.54;101031.00;4940610;29;1910;-52
2023/10/19 01:19:11;;;;;;;;;;;;;;;16.41;53.88;101026.53;4940746;29;1058;-52
2023/10/19 01:21:44;;;;;;;;;;;;;;;17.40;52.54;101031.28;4940746;29;1129;-51
2023/10/19 01:24:12;;;;;;;;;;;;;;;17.04;53.00;101025.72;4938651;29;1010;-49
2023/10/19 01:26:38;;;;;;;;;;;;;;;16.60;53.74;101026.88;4931901;29;1610;-52
2023/10/19 01:29:14;;;;;;;;;;;;;;;17.79;51.36;101024.44;4949119;29;1337;-52
2023/10/19 01:31:56;;;;;;;;;;;;;;;16.95;53.05;101016.34;4930473;29;1014;-53
2023/10/19 01:34:21;;;;;;;;;;;;;;;16.65;53.42;101017.03;4929096;29;2347;-54
2023/10/19 01:36:50;;;;;;;;;;;;;;;16.50;53.71;101012.31;4932428;29;1914;-56
2023/10/19 01:39:15;;;;;;;;;;;;;;;17.22;52.77;101018.06;4940145;29;1038;-56
2023/10/19 01:41:41;;;;;;;;;;;;;;;17.28;52.54;101012.28;4940703;29;1017;-56
2023/10/19 01:44:07;;;;;;;;;;;;;;;16.70;53.66;101006.88;4928758;29;1149;-54
2023/10/19 01:46:33;;;;;;;;;;;;;;;16.52;53.59;101015.59;4932558;29;1050;-56
2023/10/19 01:49:01;;;;;;;;;;;;;;;16.55;53.85;101018.66;4935244;29;1132;-56
2023/10/19 01:51:28;;;;;;;;;;;;;;;17.61;51.67;100999.16;4940075;29;967;-55
2023/10/19 01:53:55;;;;;;;;;;;;;;;16.89;53.23;101003.69;4937715;29;1090;-55
2023/10/19 01:56:21;;;;;;;;;;;;;;;16.57;53.52;101007.38;4928475;29;1911;-56
2023/10/19 01:58:47;;;;;;;;;;;;;;;17.10;53.28;101019.13;4937600;29;1300;-55
2023/10/19 02:03:42;;;;;;;;;;;;;;;16.84;53.43;101015.44;4930193;29;2382;-55
2023/10/19 02:06:17;;;;;;;;;;;;;;;16.61;53.52;101019.50;4939886;29;1077;-56
2023/10/19 02:08:47;;;;;;;;;;;;;;;17.52;52.10;101006.28;4938362;29;1097;-56
2023/10/19 02:11:19;;;;;;;;;;;;;;;17.13;52.62;101014.22;4939199;29;1124;-55
2023/10/19 02:13:49;;;;;;;;;;;;;;;16.76;53.29;101007.75;4926190;29;1134;-59
2023/10/19 02:16:36;;;;;;;;;;;;;;;16.71;53.80;101007.72;4949599;29;1911;-59
2023/10/19 02:19:01;;;;;;;;;;;;;;;17.27;52.12;101009.81;4939237;29;1271;-58
2023/10/19 02:21:30;;;;;;;;;;;;;;;16.75;53.34;101008.84;4926722;29;1045;-57
2023/10/19 02:23:57;;;;;;;;;;;;;;;16.53;53.88;101011.75;4938337;29;1138;-57
2023/10/19 02:26:22;;;;;;;;;;;;;;;16.38;53.78;101005.13;4938108;29;874;-57
2023/10/19 02:28:51;;;;;;;;;;;;;;;17.71;51.53;101008.47;4939677;29;1033;-57
2023/10/19 02:31:25;;;;;;;;;;;;;;;16.92;53.02;101009.47;4938963;29;1037;-56
2023/10/19 02:33:58;;;;;;;;;;;;;;;16.60;53.53;101001.34;4953858;29;1920;-55
2023/10/19 02:36:28;;;;;;;;;;;;;;;16.51;53.82;101008.44;4927075;29;1975;-57
2023/10/19 02:38:54;;;;;;;;;;;;;;;17.75;51.28;101010.41;4939191;29;1046;-56
2023/10/19 02:41:20;;;;;;;;;;;;;;;16.95;52.97;101010.84;4939203;29;1104;-56
2023/10/19 02:43:50;;;;;;;;;;;;;;;16.66;53.32;101002.22;4928128;29;1061;-55
2023/10/19 02:46:17;;;;;;;;;;;;;;;16.48;53.32;101009.84;4918778;29;1547;-56
2023/10/19 02:48:47;;;;;;;;;;;;;;;17.31;52.58;101010.94;4932702;29;1155;-56
2023/10/19 02:51:12;;;;;;;;;;;;;;;17.24;52.26;100999.38;4939022;29;1045;-56
2023/10/19 02:53:39;;;;;;;;;;;;;;;16.71;53.52;101005.78;4936051;29;1137;-57
2023/10/19 02:56:09;;;;;;;;;;;;;;;17.75;51.20;101004.91;4928856;29;1915;-57
2023/10/19 02:58:35;;;;;;;;;;;;;;;17.14;52.63;101004.84;4938271;29;1097;-55
2023/10/19 03:01:00;;;;;;;;;;;;;;;16.71;53.08;101003.06;4933402;29;1002;-57
2023/10/19 03:03:26;;;;;;;;;;;;;;;16.79;53.76;101003.63;4924483;29;2514;-56
2023/10/19 03:05:52;;;;;;;;;;;;;;;17.61;51.43;100993.63;4938634;29;1058;-56
2023/10/19 03:08:19;;;;;;;;;;;;;;;16.90;52.96;100997.09;4938567;29;1055;-56
2023/10/19 03:10:44;;;;;;;;;;;;;;;16.59;53.48;100988.72;4938874;29;1049;-56
2023/10/19 03:13:13;;;;;;;;;;;;;;;17.73;51.33;100978.78;4928722;29;995;-54
2023/10/19 03:15:42;;;;;;;;;;;;;;;17.08;52.44;100988.38;4929046;29;1969;-56
2023/10/19 03:18:08;;;;;;;;;;;;;;;16.71;53.10;100980.28;4935738;29;1122;-57
2023/10/19 03:20:33;;;;;;;;;;;;;;;16.50;53.47;100984.84;4927960;29;1113;-56
2023/10/19 03:23:02;;;;;;;;;;;;;;;17.11;52.72;100984.25;4923004;29;1085;-57
2023/10/19 03:28:12;;;;;;;;;;;;;;;16.63;53.46;100986.28;4952543;29;1193;-56
2023/10/19 03:30:39;;;;;;;;;;;;;;;16.38;53.85;100980.41;4937134;29;1034;-55
2023/10/19 03:33:08;;;;;;;;;;;;;;;16.84;53.26;100984.41;4937936;29;1888;-56
2023/10/19 03:35:34;;;;;;;;;;;;;;;17.33;52.08;100978.50;4925855;29;1903;-53
2023/10/19 03:38:01;;;;;;;;;;;;;;;16.77;53.17;100971.78;4928493;29;1118;-56
2023/10/19 03:40:34;;;;;;;;;;;;;;;16.51;53.46;100972.75;4925928;29;1062;-57
2023/10/19 03:42:59;;;;;;;;;;;;;;;17.82;50.97;100970.78;4919656;29;1023;-54
2023/10/19 03:45:25;;;;;;;;;;;;;;;17.01;52.70;100979.56;4932290;29;1134;-57
2023/10/19 03:47:55;;;;;;;;;;;;;;;16.64;53.55;100977.78;4927082;29;1030;-56
2023/10/19 03:50:21;;;;;;;;;;;;;;;16.68;53.82;100978.06;4925071;29;1014;-57
2023/10/19 03:52:47;;;;;;;;;;;;;;;17.50;51.69;100977.41;4926738;29;1197;-57
2023/10/19 03:55:18;;;;;;;;;;;;;;;16.84;52.93;100982.50;4925338;29;1906;-57
2023/10/19 03:57:47;;;;;;;;;;;;;;;16.55;53.50;100982.13;4940556;29;1050;-58
2023/10/19 04:00:19;;;;;;;;;;;;;;;16.37;53.65;100975.19;4942341;29;1067;-57
2023/10/19 04:02:45;;;;;;;;;;;;;;;17.75;51.53;100982.91;4951629;29;2338;-52
2023/10/19 04:05:20;;;;;;;;;;;;;;;17.02;52.67;100975.69;4941810;29;1097;-54
2023/10/19 04:07:46;;;;;;;;;;;;;;;16.62;53.46;100971.72;4942065;29;1093;-50
2023/10/19 04:10:29;;;;;;;;;;;;;;;16.41;53.75;100971.63;4929295;29;1039;-52
2023/10/19 04:12:55;;;;;;;;;;;;;;;17.65;51.67;100973.84;4941619;29;1011;-52
2023/10/19 04:15:20;;;;;;;;;;;;;;;16.79;53.57;100977.00;4922666;29;1975;-48
2023/10/19 04:17:46;;;;;;;;;;;;;;;16.55;53.82;100973.88;4936402;29;1130;-54
2023/10/19 04:22:42;;;;;;;;;;;;;;;17.44;52.38;100969.16;4940646;29;1182;-53
2023/10/19 04:25:08;;;;;;;;;;;;;;;17.05;52.94;100971.59;4939730;29;1029;-52
2023/10/19 04:27:35;;;;;;;;;;;;;;;16.62;53.84;100974.47;4941817;29;1010;-54
2023/10/19 04:30:02;;;;;;;;;;;;;;;16.80;53.64;100975.88;4938924;29;1172;-55
2023/10/19 04:32:27;;;;;;;;;;;;;;;17.50;51.77;100977.41;4931539;29;1177;-54
2023/10/19 04:34:53;;;;;;;;;;;;;;;16.91;53.83;100974.03;4931977;29;2562;-54
2023/10/19 04:37:18;;;;;;;;;;;;;;;17.17;52.35;100968.59;4941147;29;1975;-54
2023/10/19 04:39:44;;;;;;;;;;;;;;;16.66;52.05;100975.59;4941082;29;1014;-55
2023/10/19 04:42:10;;;;;;;;;;;;;;;16.23;50.94;100983.09;4941411;29;1052;-54
2023/10/19 04:44:35;;;;;;;;;;;;;;;16.14;50.11;100981.94;4937731;29;1181;-53
2023/10/19 04:47:01;;;;;;;;;;;;;;;16.96;51.56;100982.28;4922512;29;1050;-57
2023/10/19 04:49:26;;;;;;;;;;;;;;;16.97;52.31;100983.09;4935923;29;1197;-56
2023/10/19 04:51:52;;;;;;;;;;;;;;;16.53;50.92;100995.28;4932713;29;1153;-56
2023/10/19 04:54:17;;;;;;;;;;;;;;;16.33;49.59;100985.06;4940688;29;1022;-56
2023/10/19 04:56:43;;;;;;;;;;;;;;;16.26;49.82;100993.53;4928498;29;1906;-54
2023/10/19 04:59:08;;;;;;;;;;;;;;;16.62;50.60;100990.94;4940431;29;1257;-55
2023/10/19 05:01:34;;;;;;;;;;;;;;;16.30;49.69;100983.66;4941516;29;1331;-55
2023/10/19 05:04:00;;;;;;;;;;;;;;;16.16;48.88;100985.22;4940650;29;2234;-57
2023/10/19 05:06:25;;;;;;;;;;;;;;;17.07;50.03;100994.94;4940493;29;1158;-57
2023/10/19 05:08:52;;;;;;;;;;;;;;;16.83;50.80;100982.75;4940790;29;1364;-57
2023/10/19 05:11:17;;;;;;;;;;;;;;;16.42;49.68;100992.50;4940475;29;1150;-57
2023/10/19 05:13:43;;;;;;;;;;;;;;;16.91;50.68;100991.34;4942173;29;1268;-56
2023/10/19 05:16:08;;;;;;;;;;;;;;;16.75;50.38;100995.94;4934731;29;1973;-53
2023/10/19 05:18:34;;;;;;;;;;;;;;;16.43;49.55;100998.81;4921828;29;1014;-55
2023/10/19 05:21:00;;;;;;;;;;;;;;;16.40;49.01;100991.94;4927833;29;1184;-55
2023/10/19 05:23:26;;;;;;;;;;;;;;;16.92;50.20;100990.25;4940637;29;1054;-55
2023/10/19 05:26:00;;;;;;;;;;;;;;;17.52;50.08;101002.72;4934979;29;1097;-55
2023/10/19 05:28:25;;;;;;;;;;;;;;;18.76;49.33;100995.88;4922053;29;1025;-52
2023/10/19 05:30:51;;;;;;;;;;;;;;;17.36;50.94;100997.22;4940345;29;1144;-54
2023/10/19 05:33:20;;;;;;;;;;;;;;;17.07;50.00;100997.69;4941052;29;1892;-56
2023/10/19 05:35:46;;;;;;;;;;;;;;;16.78;48.62;101002.81;4941278;29;1902;-55
2023/10/19 05:38:11;;;;;;;;;;;;;;;16.51;48.09;100997.47;4939401;29;1055;-55
2023/10/19 05:40:38;;;;;;;;;;;;;;;17.20;49.60;101004.59;4940172;29;1107;-56
2023/10/19 05:43:04;;;;;;;;;;;;;;;17.00;49.92;100999.88;4939670;29;1113;-56
2023/10/19 05:45:30;;;;;;;;;;;;;;;16.57;49.08;100999.16;4928677;29;1034;-55
2023/10/19 05:47:56;;;;;;;;;;;;;;;17.53;50.39;100996.94;4938693;29;1201;-55
2023/10/19 05:50:22;;;;;;;;;;;;;;;16.82;50.24;100998.44;4933851;29;1097;-54
2023/10/19 05:52:48;;;;;;;;;;;;;;;16.81;49.41;100998.69;4940004;29;1053;-56
2023/10/19 05:55:14;;;;;;;;;;;;;;;17.24;50.31;100999.38;4926903;29;1972;-52
2023/10/19 05:57:42;;;;;;;;;;;;;;;16.83;49.40;100997.34;4940617;29;1037;-54
2023/10/19 06:00:12;;;;;;;;;;;;;;;16.71;48.72;100994.81;4939874;29;1037;-54
2023/10/19 06:02:44;;;;;;;;;;;;;;;17.38;49.76;100991.44;4932556;29;1050;-51
2023/10/19 06:05:10;;;;;;;;;;;;;;;16.86;49.03;100993.22;4938124;29;1115;-56
2023/10/19 06:07:35;;;;;;;;;;;;;;;16.59;48.31;100992.31;4929443;29;1172;-56
2023/10/19 06:10:04;;;;;;;;;;;;;;;17.65;49.37;100995.84;4938734;29;1326;-55
2023/10/19 06:12:32;;;;;;;;;;;;;;;17.00;49.73;101007.28;4939851;29;1208;-60
2023/10/19 06:14:58;;;;;;;;;;;;;;;16.66;48.81;100993.97;4939607;29;1041;-53
2023/10/19 06:17:24;;;;;;;;;;;;;;;16.57;47.74;101001.91;4939274;29;2023;-47
2023/10/19 06:19:49;;;;;;;;;;;;;;;17.73;48.95;101007.09;4938969;29;1248;-51
2023/10/19 06:22:16;;;;;;;;;;;;;;;16.90;49.25;101005.34;4939623;29;1331;-53
2023/10/19 06:24:43;;;;;;;;;;;;;;;16.65;48.44;101008.78;4938497;29;1149;-53
2023/10/19 06:27:09;;;;;;;;;;;;;;;16.56;47.28;100997.50;4938201;29;1309;-52
2023/10/19 06:29:35;;;;;;;;;;;;;;;16.43;46.88;101005.13;4939659;29;990;-48
2023/10/19 06:32:00;;;;;;;;;;;;;;;17.52;48.17;100999.97;4939817;29;966;-53
2023/10/19 06:34:27;;;;;;;;;;;;;;;16.65;48.47;100982.16;4939280;29;2628;-54
2023/10/19 06:36:54;;;;;;;;;;;;;;;16.52;48.09;101001.88;4920656;29;1914;-50
2023/10/19 06:39:20;;;;;;;;;;;;;;;17.56;48.52;101007.38;4922325;29;1023;-52
2023/10/19 06:41:46;;;;;;;;;;;;;;;16.92;49.06;101003.97;4939838;29;1046;-53
2023/10/19 06:44:12;;;;;;;;;;;;;;;16.64;48.21;101005.22;4938598;29;1045;-51
2023/10/19 06:46:39;;;;;;;;;;;;;;;17.48;48.38;100999.69;4937672;29;1118;-53
2023/10/19 06:49:04;;;;;;;;;;;;;;;16.80;48.66;101008.84;4938579;29;1269;-54
2023/10/19 06:51:30;;;;;;;;;;;;;;;16.60;48.09;101007.66;4926854;29;1134;-53
2023/10/19 06:53:56;;;;;;;;;;;;;;;17.35;48.52;101003.78;4937387;29;1256;-51
2023/10/19 06:56:21;;;;;;;;;;;;;;;17.01;48.89;101004.28;4927441;29;1981;-50
2023/10/19 06:58:47;;;;;;;;;;;;;;;16.63;48.41;101006.31;4936679;29;1158;-52
2023/10/19 07:01:16;;;;;;;;;;;;;;;16.53;47.48;101006.28;4935046;29;1148;-52
2023/10/19 07:03:42;;;;;;;;;;;;;;;16.56;47.42;101003.00;4928169;29;2315;-52
2023/10/19 07:06:08;;;;;;;;;;;;;;;17.08;48.52;100998.50;4938379;29;1034;-54
2023/10/19 07:08:33;;;;;;;;;;;;;;;16.62;48.36;100993.69;4938848;29;1447;-52
2023/10/19 07:10:59;;;;;;;;;;;;;;;17.76;48.15;101002.97;4938789;29;1088;-54
2023/10/19 07:13:25;;;;;;;;;;;;;;;17.04;48.88;100986.41;4928164;29;1125;-54
2023/10/19 07:15:51;;;;;;;;;;;;;;;16.73;48.31;100994.53;4929194;29;1967;-52
2023/10/19 07:18:17;;;;;;;;;;;;;;;16.60;47.69;100993.13;4928094;29;1208;-49
2023/10/19 07:20:42;;;;;;;;;;;;;;;17.62;48.12;100995.28;4936921;29;1042;-50
2023/10/19 07:23:18;;;;;;;;;;;;;;;16.83;48.75;100985.50;4927990;29;1085;-46
2023/10/19 07:25:54;;;;;;;;;;;;;;;16.62;47.89;100982.72;4931939;29;999;-51
2023/10/19 07:28:19;;;;;;;;;;;;;;;16.77;47.94;100982.75;4934123;29;987;-48
2023/10/19 07:30:46;;;;;;;;;;;;;;;17.11;48.44;100981.50;4933197;29;1333;-52
2023/10/19 07:33:17;;;;;;;;;;;;;;;16.75;48.21;100975.88;4930132;29;2568;-51
2023/10/19 07:35:43;;;;;;;;;;;;;;;16.58;47.28;100973.38;4943681;29;1981;-54
2023/10/19 07:38:09;;;;;;;;;;;;;;;17.37;47.92;100971.34;4945573;28;1092;-52
2023/10/19 07:40:35;;;;;;;;;;;;;;;16.84;48.15;100968.75;4929573;29;1069;-53
2023/10/19 07:43:01;;;;;;;;;;;;;;;16.64;47.73;100966.78;4938234;29;1248;-48
2023/10/19 07:45:26;;;;;;;;;;;;;;;16.69;47.76;100966.81;4945883;29;1026;-56
2023/10/19 07:47:52;;;;;;;;;;;;;;;17.02;48.08;100961.97;4931067;29;1061;-55
2023/10/19 07:50:17;;;;;;;;;;;;;;;16.65;47.78;100960.22;4931925;29;1070;-50
2023/10/19 07:52:52;;;;;;;;;;;;;;;17.44;47.87;100960.91;4937576;29;1275;-54
2023/10/19 07:55:18;;;;;;;;;;;;;;;16.86;48.26;100954.78;4937590;29;1910;-51
2023/10/19 07:57:44;;;;;;;;;;;;;;;16.66;47.61;100956.38;4937537;29;1225;-53
2023/10/19 08:00:10;;;;;;;;;;;;;;;16.54;47.33;100955.78;4937874;29;1437;-46
2023/10/19 08:02:35;;;;;;;;;;;;;;;16.38;46.96;100952.13;4927909;29;1251;-52
2023/10/19 08:05:02;;;;;;;;;;;;;;;17.40;47.82;100958.97;4937403;29;2552;-52
2023/10/19 08:07:28;;;;;;;;;;;;;;;16.85;48.60;100959.44;4946171;29;1057;-52
2023/10/19 08:09:54;;;;;;;;;;;;;;;16.68;47.63;100958.84;4928224;29;1092;-52
2023/10/19 08:12:22;;;;;;;;;;;;;;;16.56;47.38;100948.09;4937927;29;1224;-53
2023/10/19 08:14:48;;;;;;;;;;;;;;;16.82;47.47;100959.16;4937785;29;1092;-49
2023/10/19 08:17:14;;;;;;;;;;;;;;;16.99;48.24;100940.53;4933851;29;1977;-50
2023/10/19 08:19:40;;;;;;;;;;;;;;;16.58;48.17;100949.47;4937817;29;1116;-50
2023/10/19 08:22:05;;;;;;;;;;;;;;;16.55;47.55;100943.69;4937697;29;1460;-44
2023/10/19 08:24:34;;;;;;;;;;;;;;;17.54;47.89;100949.06;4929061;29;1006;-52
2023/10/19 08:27:00;;;;;;;;;;;;;;;16.95;48.06;100931.19;4926943;29;1112;-52
2023/10/19 08:29:26;;;;;;;;;;;;;;;17.01;48.34;100935.63;4934125;29;1196;-53
2023/10/19 08:31:51;;;;;;;;;;;;;;;17.27;48.71;100939.19;4938025;29;1093;-51
2023/10/19 08:34:17;;;;;;;;;;;;;;;16.92;48.24;100942.72;4937368;29;1936;-53
2023/10/19 08:36:42;;;;;;;;;;;;;;;17.12;48.75;100935.63;4937319;29;1902;-52
2023/10/19 08:39:09;;;;;;;;;;;;;;;17.17;48.54;100933.69;4934016;29;1088;-52
2023/10/19 08:41:34;;;;;;;;;;;;;;;16.80;47.89;100942.94;4927635;29;1014;-52
2023/10/19 08:44:01;;;;;;;;;;;;;;;16.74;47.57;100936.59;4939178;29;1106;-54
2023/10/19 08:46:28;;;;;;;;;;;;;;;16.64;46.91;100939.31;4939940;29;992;-54
2023/10/19 08:48:54;;;;;;;;;;;;;;;17.60;48.28;100930.69;4928558;29;1101;-55
2023/10/19 08:51:20;;;;;;;;;;;;;;;16.94;48.43;100932.28;4931302;29;1004;-54
2023/10/19 08:53:46;;;;;;;;;;;;;;;16.74;47.52;100933.84;4928400;29;1168;-53
2023/10/19 08:56:12;;;;;;;;;;;;;;;17.84;47.78;100930.91;4941111;29;1894;-54
2023/10/19 08:58:37;;;;;;;;;;;;;;;17.16;48.67;100936.72;4937696;29;1117;-55
2023/10/19 09:01:09;;;;;;;;;;;;;;;16.95;47.83;100936.69;4936203;29;1245;-54
2023/10/19 09:03:35;;;;;;;;;;;;;;;16.80;47.40;100942.13;4939625;29;1839;-53
2023/10/19 09:06:02;;;;;;;;;;;;;;;16.64;47.09;100931.09;4940581;29;1271;-55
2023/10/19 09:08:38;;;;;;;;;;;;;;;16.56;46.79;100920.63;4940426;29;1342;-52
2023/10/19 09:11:11;;;;;;;;;;;;;;;17.71;47.47;100925.97;4940683;29;1122;-52
2023/10/19 09:13:47;;;;;;;;;;;;;;;17.04;48.31;100920.47;4939564;29;1395;-53
2023/10/19 09:16:14;;;;;;;;;;;;;;;16.73;47.70;100906.66;4940336;29;1980;-53
2023/10/19 09:18:39;;;;;;;;;;;;;;;16.68;47.03;100921.22;4940192;29;1291;-49
2023/10/19 09:21:07;;;;;;;;;;;;;;;17.56;47.65;100904.84;4943453;29;1283;-52
2023/10/19 09:23:32;;;;;;;;;;;;;;;16.90;48.10;100895.47;4941828;29;1339;-55
2023/10/19 09:26:00;;;;;;;;;;;;;;;16.75;47.63;100888.81;4939884;29;1195;-51
2023/10/19 09:28:25;;;;;;;;;;;;;;;17.62;47.59;100892.72;4939391;29;1232;-51
2023/10/19 09:30:51;;;;;;;;;;;;;;;16.86;48.56;100889.69;4936752;29;1268;-53
2023/10/19 09:33:17;;;;;;;;;;;;;;;16.77;47.53;100883.91;4923321;29;2302;-54
2023/10/19 09:35:45;;;;;;;;;;;;;;;16.60;47.08;100888.81;4932507;29;1971;-52
2023/10/19 09:38:11;;;;;;;;;;;;;;;17.68;47.73;100890.78;4934025;29;1521;-52
2023/10/19 09:40:38;;;;;;;;;;;;;;;16.99;48.38;100880.09;4932225;29;1021;-53
2023/10/19 09:43:04;;;;;;;;;;;;;;;16.79;47.54;100885.53;4938843;29;1096;-52
2023/10/19 09:45:30;;;;;;;;;;;;;;;17.07;48.03;100882.31;4940342;29;1093;-51
2023/10/19 09:47:56;;;;;;;;;;;;;;;17.25;48.39;100869.09;4936931;29;1133;-49
2023/10/19 09:50:21;;;;;;;;;;;;;;;16.91;48.18;100862.25;4930293;29;983;-53
2023/10/19 09:52:48;;;;;;;;;;;;;;;16.86;47.24;100862.22;4932858;29;1100;-51
2023/10/19 09:55:44;;;;;;;;;;;;;;;16.69;46.95;100856.97;4925290;29;1903;-53
2023/10/19 09:58:14;;;;;;;;;;;;;;;16.55;46.58;100853.94;4927711;29;1442;-51
2023/10/19 10:00:44;;;;;;;;;;;;;;;16.52;46.37;100850.91;4928601;29;1153;-51
2023/10/19 10:03:30;;;;;;;;;;;;;;;17.54;47.35;100838.28;4943767;29;1868;-50
2023/10/19 10:05:57;;;;;;;;;;;;;;;16.81;48.23;100839.41;4938643;29;1677;-52
2023/10/19 10:08:26;;;;;;;;;;;;;;;16.67;47.51;100839.94;4924496;29;1112;-52
2023/10/19 10:10:52;;;;;;;;;;;;;;;16.96;47.62;100825.72;4929797;29;1099;-52
2023/10/19 10:13:26;;;;;;;;;;;;;;;17.14;48.06;100818.00;4939675;29;1104;-52
2023/10/19 10:15:55;;;;;;;;;;;;;;;16.82;47.64;100822.66;4938345;29;1974;-53
2023/10/19 10:18:20;;;;;;;;;;;;;;;16.65;47.45;100814.69;4950884;29;1228;-53
2023/10/19 10:20:47;;;;;;;;;;;;;;;17.79;47.07;100793.38;4933093;29;999;-54
2023/10/19 10:23:26;;;;;;;;;;;;;;;17.02;48.26;100794.38;4933055;29;1059;-55
2023/10/19 10:25:53;;;;;;;;;;;;;;;16.80;47.46;100794.63;4942059;29;1108;-55
2023/10/19 10:28:19;;;;;;;;;;;;;;;16.60;47.15;100790.78;4938850;29;1083;-54
2023/10/19 10:31:03;;;;;;;;;;;;;;;16.75;47.41;100772.69;4937128;29;1089;-54
2023/10/19 10:33:38;;;;;;;;;;;;;;;17.16;48.06;100772.66;4939414;29;2343;-55
2023/10/19 10:36:06;;;;;;;;;;;;;;;16.83;47.66;100776.78;4939693;29;1903;-53
2023/10/19 10:38:33;;;;;;;;;;;;;;;16.65;47.35;100779.00;4939686;29;1068;-55
2023/10/19 10:40:58;;;;;;;;;;;;;;;16.82;47.30;100766.94;4932510;29;1543;-54
2023/10/19 10:43:24;;;;;;;;;;;;;;;17.22;47.91;100765.22;4932960;29;1069;-53
2023/10/19 10:45:50;;;;;;;;;;;;;;;16.84;48.04;100760.03;4926804;29;1051;-54
2023/10/19 10:48:16;;;;;;;;;;;;;;;16.70;47.20;100753.47;4926549;29;1097;-53
2023/10/19 10:50:41;;;;;;;;;;;;;;;16.55;47.06;100746.03;4938796;29;1105;-52
2023/10/19 10:53:07;;;;;;;;;;;;;;;17.67;46.91;100743.38;4935571;29;1084;-55
2023/10/19 10:55:33;;;;;;;;;;;;;;;16.96;47.85;100728.75;4937560;29;1987;-51
2023/10/19 10:57:59;;;;;;;;;;;;;;;16.68;47.47;100742.75;4927455;29;1113;-54
2023/10/19 11:00:26;;;;;;;;;;;;;;;16.63;47.11;100730.94;4919925;29;1038;-53
2023/10/19 11:03:01;;;;;;;;;;;;;;;17.46;47.27;100729.72;4931429;29;2310;-54
2023/10/19 11:05:27;;;;;;;;;;;;;;;16.93;47.92;100730.13;4929887;29;1108;-53
2023/10/19 11:08:02;;;;;;;;;;;;;;;16.78;47.28;100741.94;4939263;29;1349;-54
2023/10/19 11:10:29;;;;;;;;;;;;;;;16.66;46.78;100730.41;4940624;29;1391;-52
2023/10/19 11:13:03;;;;;;;;;;;;;;;17.40;47.39;100720.69;4944929;29;1354;-53
2023/10/19 11:15:29;;;;;;;;;;;;;;;17.16;48.04;100722.41;4938490;29;1894;-54
2023/10/19 11:17:54;;;;;;;;;;;;;;;16.87;47.59;100731.19;4932382;29;1074;-53
2023/10/19 11:20:24;;;;;;;;;;;;;;;16.71;47.10;100722.97;4929326;29;1024;-53
2023/10/19 11:22:51;;;;;;;;;;;;;;;17.12;47.41;100733.09;4933059;29;1307;-55
2023/10/19 11:25:28;;;;;;;;;;;;;;;17.02;48.00;100728.47;4942293;29;1094;-52
2023/10/19 11:27:56;;;;;;;;;;;;;;;16.83;47.40;100730.09;4937955;29;1319;-54
2023/10/19 11:30:22;;;;;;;;;;;;;;;16.56;46.86;100728.47;4937991;29;1394;-53
2023/10/19 11:32:48;;;;;;;;;;;;;;;17.84;46.80;100721.00;4937899;29;2571;-53
2023/10/19 11:35:13;;;;;;;;;;;;;;;16.96;47.93;100717.75;4937651;29;1899;-53
2023/10/19 11:37:52;;;;;;;;;;;;;;;16.81;47.65;100718.59;4938354;29;1049;-53
2023/10/19 11:40:19;;;;;;;;;;;;;;;16.63;46.79;100714.47;4932332;29;1053;-54
2023/10/19 11:42:44;;;;;;;;;;;;;;;17.69;47.20;100713.69;4937475;29;1050;-54
2023/10/19 11:45:11;;;;;;;;;;;;;;;17.12;47.84;100699.31;4937706;29;1245;-52
2023/10/19 11:47:37;;;;;;;;;;;;;;;16.90;47.33;100704.03;4937810;29;1411;-54
2023/10/19 11:50:03;;;;;;;;;;;;;;;16.70;47.00;100691.13;4936748;29;1095;-52
2023/10/19 11:52:30;;;;;;;;;;;;;;;16.55;46.67;100686.50;4937324;29;1292;-52
2023/10/19 11:54:55;;;;;;;;;;;;;;;17.26;46.96;100689.38;4937428;29;1150;-53
2023/10/19 11:57:21;;;;;;;;;;;;;;;17.18;47.51;100687.22;4929758;29;1988;-56
2023/10/19 11:59:52;;;;;;;;;;;;;;;16.80;47.35;100681.22;4933415;29;1218;-53
2023/10/19 12:02:18;;;;;;;;;;;;;;;17.65;47.14;100674.09;4935337;29;1150;-55
2023/10/19 12:04:45;;;;;;;;;;;;;;;16.89;47.99;100674.13;4936114;29;1806;-55
2023/10/19 12:07:10;;;;;;;;;;;;;;;16.85;47.35;100667.50;4938121;29;1069;-53
2023/10/19 12:09:36;;;;;;;;;;;;;;;16.67;46.90;100677.94;4937344;29;1103;-53
2023/10/19 12:12:05;;;;;;;;;;;;;;;16.90;47.18;100670.25;4938617;29;1066;-56
2023/10/19 12:14:34;;;;;;;;;;;;;;;17.32;47.61;100679.19;4937074;29;1108;-55
2023/10/19 12:17:01;;;;;;;;;;;;;;;16.87;47.67;100670.78;4934580;29;1887;-55
2023/10/19 12:19:28;;;;;;;;;;;;;;;16.74;47.13;100673.00;4938777;29;1414;-55
2023/10/19 12:21:54;;;;;;;;;;;;;;;17.50;47.20;100661.25;4941203;29;1233;-48
2023/10/19 12:24:21;;;;;;;;;;;;;;;17.35;47.75;100665.72;4941600;29;1299;-53
2023/10/19 12:26:46;;;;;;;;;;;;;;;16.95;47.65;100662.00;4941530;29;1342;-55
2023/10/19 12:29:14;;;;;;;;;;;;;;;16.85;46.96;100662.00;4937789;29;1120;-53
2023/10/19 12:31:40;;;;;;;;;;;;;;;16.84;46.89;100660.34;4939109;29;1081;-53
2023/10/19 12:34:06;;;;;;;;;;;;;;;17.39;47.48;100649.47;4931371;29;2268;-54
2023/10/19 12:36:32;;;;;;;;;;;;;;;16.98;47.42;100655.13;4939572;29;1902;-53
2023/10/19 12:38:57;;;;;;;;;;;;;;;16.85;46.76;100662.81;4941524;29;1057;-54
2023/10/19 12:41:23;;;;;;;;;;;;;;;16.71;46.49;100659.81;4937081;29;998;-53
2023/10/19 12:43:52;;;;;;;;;;;;;;;16.97;46.69;100650.72;4933398;29;1073;-53
2023/10/19 12:46:19;;;;;;;;;;;;;;;17.65;47.50;100655.66;4928648;29;1156;-53
2023/10/19 12:48:46;;;;;;;;;;;;;;;16.98;48.02;100650.44;4941609;29;1147;-53
2023/10/19 12:51:13;;;;;;;;;;;;;;;16.99;46.83;100652.09;4940454;29;1008;-54
2023/10/19 12:53:39;;;;;;;;;;;;;;;16.82;46.81;100638.66;4937689;29;1201;-50
2023/10/19 12:56:05;;;;;;;;;;;;;;;16.79;46.80;100638.38;4941429;29;1910;-48
2023/10/19 12:58:31;;;;;;;;;;;;;;;17.35;47.33;100631.91;4940383;29;1121;-55
2023/10/19 13:00:58;;;;;;;;;;;;;;;16.93;47.58;100636.75;4940985;29;1117;-52
2023/10/19 13:03:27;;;;;;;;;;;;;;;16.86;46.63;100633.44;4929500;29;2460;-55
2023/10/19 13:05:53;;;;;;;;;;;;;;;16.64;46.73;100626.34;4940196;29;1060;-53
2023/10/19 13:08:18;;;;;;;;;;;;;;;17.10;47.19;100623.50;4937988;29;1148;-55